Terminal Aerodrome Forecast
Issued by NWS

Home | Current Version | Previous Version | Text Only | Print | Product List | Glossary On
Versions: 1 2 3 4 5 6 7 8 9 10 11 12 13 14 15 16 17 18 19 20 21 22 23 24 25
000
FTUS45 KRIW 282321
TAFPNA
TAF
KPNA 282321Z 2900/2924 30010KT P6SM SCT100
     FM290400 29006KT P6SM FEW120 SCT200
     FM292000 22011KT P6SM BKN100 OVC120
      AMD LTD TO CLD VIS AND WIND=

USA.gov is the U.S. government's official web portal to all federal, state and local government web resources and services.